sensor_id;sensor_type;location;lat;lon;timestamp;pressure;altitude;pressure_sealevel;temperature
18713;BMP280;9485;49.386;8.674;2023-10-09T00:03:40;100998.03;;;16.47
18713;BMP280;9485;49.386;8.674;2023-10-09T00:09:04;100993.34;;;16.44
18713;BMP280;9485;49.386;8.674;2023-10-09T00:14:36;100996.19;;;16.44
18713;BMP280;9485;49.386;8.674;2023-10-09T00:19:58;100987.91;;;16.40
18713;BMP280;9485;49.386;8.674;2023-10-09T00:25:30;100982.50;;;16.37
18713;BMP280;9485;49.386;8.674;2023-10-09T00:30:55;100986.63;;;16.36
18713;BMP280;9485;49.386;8.674;2023-10-09T00:36:16;100987.16;;;16.40
18713;BMP280;9485;49.386;8.674;2023-10-09T00:41:48;100981.69;;;16.42
18713;BMP280;9485;49.386;8.674;2023-10-09T00:47:12;100981.94;;;16.44
18713;BMP280;9485;49.386;8.674;2023-10-09T00:52:44;100971.34;;;16.44
18713;BMP280;9485;49.386;8.674;2023-10-09T00:58:13;100949.00;;;16.54
18713;BMP280;9485;49.386;8.674;2023-10-09T01:03:35;100951.44;;;16.84
18713;BMP280;9485;49.386;8.674;2023-10-09T01:08:59;100949.47;;;17.09
18713;BMP280;9485;49.386;8.674;2023-10-09T01:14:30;100952.47;;;17.27
18713;BMP280;9485;49.386;8.674;2023-10-09T01:19:55;100929.06;;;17.34
18713;BMP280;9485;49.386;8.674;2023-10-09T01:25:20;100946.41;;;17.41
18713;BMP280;9485;49.386;8.674;2023-10-09T01:30:43;100940.91;;;17.49
18713;BMP280;9485;49.386;8.674;2023-10-09T01:36:06;100935.63;;;17.58
18713;BMP280;9485;49.386;8.674;2023-10-09T01:41:30;100937.00;;;17.76
18713;BMP280;9485;49.386;8.674;2023-10-09T01:46:53;100936.63;;;17.90
18713;BMP280;9485;49.386;8.674;2023-10-09T01:52:20;100935.25;;;17.97
18713;BMP280;9485;49.386;8.674;2023-10-09T01:57:42;100925.81;;;18.02
18713;BMP280;9485;49.386;8.674;2023-10-09T02:03:05;100922.63;;;18.10
18713;BMP280;9485;49.386;8.674;2023-10-09T02:08:32;100912.63;;;18.22
18713;BMP280;9485;49.386;8.674;2023-10-09T02:13:56;100908.47;;;18.23
18713;BMP280;9485;49.386;8.674;2023-10-09T02:19:20;100906.31;;;18.29
18713;BMP280;9485;49.386;8.674;2023-10-09T02:24:51;100906.78;;;18.33
18713;BMP280;9485;49.386;8.674;2023-10-09T02:30:19;100905.19;;;18.38
18713;BMP280;9485;49.386;8.674;2023-10-09T02:35:46;100902.84;;;18.36
18713;BMP280;9485;49.386;8.674;2023-10-09T02:41:12;100908.56;;;18.36
18713;BMP280;9485;49.386;8.674;2023-10-09T02:46:48;100903.31;;;18.40
18713;BMP280;9485;49.386;8.674;2023-10-09T02:52:10;100897.84;;;18.42
18713;BMP280;9485;49.386;8.674;2023-10-09T02:57:36;100888.97;;;18.46
18713;BMP280;9485;49.386;8.674;2023-10-09T03:03:00;100903.16;;;18.51
18713;BMP280;9485;49.386;8.674;2023-10-09T03:08:27;100895.59;;;18.54
18713;BMP280;9485;49.386;8.674;2023-10-09T03:13:49;100895.84;;;18.56
18713;BMP280;9485;49.386;8.674;2023-10-09T03:19:13;100898.16;;;18.57
18713;BMP280;9485;49.386;8.674;2023-10-09T03:24:34;100900.25;;;18.57
18713;BMP280;9485;49.386;8.674;2023-10-09T03:29:54;100902.09;;;18.54
18713;BMP280;9485;49.386;8.674;2023-10-09T03:35:17;100901.72;;;18.45
18713;BMP280;9485;49.386;8.674;2023-10-09T03:40:44;100906.00;;;18.33
18713;BMP280;9485;49.386;8.674;2023-10-09T03:46:08;100898.13;;;18.20
18713;BMP280;9485;49.386;8.674;2023-10-09T03:51:40;100890.72;;;18.07
18713;BMP280;9485;49.386;8.674;2023-10-09T03:57:02;100899.09;;;17.99
18713;BMP280;9485;49.386;8.674;2023-10-09T04:02:22;100902.03;;;17.94
18713;BMP280;9485;49.386;8.674;2023-10-09T04:07:45;100900.25;;;17.91
18713;BMP280;9485;49.386;8.674;2023-10-09T04:13:08;100892.25;;;17.84
18713;BMP280;9485;49.386;8.674;2023-10-09T04:18:31;100889.16;;;17.82
18713;BMP280;9485;49.386;8.674;2023-10-09T04:23:53;100873.09;;;17.79
18713;BMP280;9485;49.386;8.674;2023-10-09T04:29:28;100874.41;;;17.78
18713;BMP280;9485;49.386;8.674;2023-10-09T04:34:58;100862.44;;;17.79
18713;BMP280;9485;49.386;8.674;2023-10-09T04:40:40;100860.09;;;17.83
18713;BMP280;9485;49.386;8.674;2023-10-09T04:46:13;100877.97;;;17.84
18713;BMP280;9485;49.386;8.674;2023-10-09T04:51:42;100868.88;;;17.85
18713;BMP280;9485;49.386;8.674;2023-10-09T04:57:22;100877.38;;;17.91
18713;BMP280;9485;49.386;8.674;2023-10-09T05:02:44;100875.06;;;17.89
18713;BMP280;9485;49.386;8.674;2023-10-09T05:08:15;100871.91;;;17.93
18713;BMP280;9485;49.386;8.674;2023-10-09T05:13:40;100885.59;;;18.00
18713;BMP280;9485;49.386;8.674;2023-10-09T05:19:05;100893.09;;;18.03
18713;BMP280;9485;49.386;8.674;2023-10-09T05:24:28;100899.91;;;18.00
18713;BMP280;9485;49.386;8.674;2023-10-09T05:30:04;100908.50;;;17.94
18713;BMP280;9485;49.386;8.674;2023-10-09T05:35:44;100910.06;;;17.95
18713;BMP280;9485;49.386;8.674;2023-10-09T05:41:25;100904.34;;;17.95
18713;BMP280;9485;49.386;8.674;2023-10-09T05:47:08;100900.09;;;18.02
18713;BMP280;9485;49.386;8.674;2023-10-09T05:52:56;100902.16;;;18.07
18713;BMP280;9485;49.386;8.674;2023-10-09T05:58:27;100905.22;;;18.08
18713;BMP280;9485;49.386;8.674;2023-10-09T06:04:35;100913.00;;;18.13
18713;BMP280;9485;49.386;8.674;2023-10-09T06:10:14;100917.63;;;18.16
18713;BMP280;9485;49.386;8.674;2023-10-09T06:15:52;100922.53;;;18.21
18713;BMP280;9485;49.386;8.674;2023-10-09T06:21:30;100926.31;;;18.29
18713;BMP280;9485;49.386;8.674;2023-10-09T06:27:20;100916.69;;;18.32
18713;BMP280;9485;49.386;8.674;2023-10-09T06:32:45;100918.69;;;18.37
18713;BMP280;9485;49.386;8.674;2023-10-09T06:38:18;100928.69;;;18.49
18713;BMP280;9485;49.386;8.674;2023-10-09T06:43:42;100936.66;;;18.56
18713;BMP280;9485;49.386;8.674;2023-10-09T06:49:07;100931.41;;;18.60
18713;BMP280;9485;49.386;8.674;2023-10-09T06:54:50;100923.53;;;18.66
18713;BMP280;9485;49.386;8.674;2023-10-09T07:00:12;100914.69;;;18.64
18713;BMP280;9485;49.386;8.674;2023-10-09T07:05:49;100929.78;;;18.65
18713;BMP280;9485;49.386;8.674;2023-10-09T07:11:25;100938.31;;;18.70
18713;BMP280;9485;49.386;8.674;2023-10-09T07:17:02;100938.22;;;18.76
18713;BMP280;9485;49.386;8.674;2023-10-09T07:22:24;100933.78;;;18.75
18713;BMP280;9485;49.386;8.674;2023-10-09T07:27:50;100942.00;;;18.83
18713;BMP280;9485;49.386;8.674;2023-10-09T07:33:11;100958.00;;;18.92
18713;BMP280;9485;49.386;8.674;2023-10-09T07:38:36;100959.19;;;19.02
18713;BMP280;9485;49.386;8.674;2023-10-09T07:43:58;100962.63;;;19.19
18713;BMP280;9485;49.386;8.674;2023-10-09T07:49:38;100963.81;;;19.23
18713;BMP280;9485;49.386;8.674;2023-10-09T07:54:59;100959.13;;;19.26
18713;BMP280;9485;49.386;8.674;2023-10-09T08:00:24;100956.19;;;19.44
18713;BMP280;9485;49.386;8.674;2023-10-09T08:06:17;100957.34;;;19.54
18713;BMP280;9485;49.386;8.674;2023-10-09T08:11:59;100952.06;;;19.58
18713;BMP280;9485;49.386;8.674;2023-10-09T08:17:34;100952.22;;;19.65
18713;BMP280;9485;49.386;8.674;2023-10-09T08:22:57;100962.25;;;19.72
18713;BMP280;9485;49.386;8.674;2023-10-09T08:28:18;100979.25;;;19.83
18713;BMP280;9485;49.386;8.674;2023-10-09T08:34:03;100979.22;;;20.01
18713;BMP280;9485;49.386;8.674;2023-10-09T08:39:23;100976.59;;;20.16
18713;BMP280;9485;49.386;8.674;2023-10-09T08:44:50;100973.75;;;20.29
18713;BMP280;9485;49.386;8.674;2023-10-09T08:50:13;100966.59;;;20.61
18713;BMP280;9485;49.386;8.674;2023-10-09T08:55:37;100970.53;;;20.97
18713;BMP280;9485;49.386;8.674;2023-10-09T09:00:58;100983.88;;;21.08
18713;BMP280;9485;49.386;8.674;2023-10-09T09:06:22;100995.63;;;21.30
18713;BMP280;9485;49.386;8.674;2023-10-09T09:11:43;101005.16;;;21.45
18713;BMP280;9485;49.386;8.674;2023-10-09T09:17:10;100988.75;;;21.66
18713;BMP280;9485;49.386;8.674;2023-10-09T09:22:55;100992.94;;;21.65
18713;BMP280;9485;49.386;8.674;2023-10-09T09:28:16;101005.31;;;21.73
18713;BMP280;9485;49.386;8.674;2023-10-09T09:33:40;101003.13;;;21.66
18713;BMP280;9485;49.386;8.674;2023-10-09T09:39:05;101007.59;;;21.75
18713;BMP280;9485;49.386;8.674;2023-10-09T09:44:39;100979.66;;;21.75
18713;BMP280;9485;49.386;8.674;2023-10-09T09:50:06;100978.22;;;21.69
18713;BMP280;9485;49.386;8.674;2023-10-09T09:55:37;100976.34;;;21.71
18713;BMP280;9485;49.386;8.674;2023-10-09T10:01:03;100976.63;;;21.81
18713;BMP280;9485;49.386;8.674;2023-10-09T10:06:38;100986.91;;;21.96
18713;BMP280;9485;49.386;8.674;2023-10-09T10:12:05;100991.38;;;22.25
18713;BMP280;9485;49.386;8.674;2023-10-09T10:17:29;100986.75;;;22.43
18713;BMP280;9485;49.386;8.674;2023-10-09T10:23:15;100991.56;;;22.48
18713;BMP280;9485;49.386;8.674;2023-10-09T10:28:39;100978.69;;;22.41
18713;BMP280;9485;49.386;8.674;2023-10-09T10:34:04;100997.50;;;22.42
18713;BMP280;9485;49.386;8.674;2023-10-09T10:39:30;101002.72;;;22.51
18713;BMP280;9485;49.386;8.674;2023-10-09T10:45:05;101004.13;;;22.58
18713;BMP280;9485;49.386;8.674;2023-10-09T10:50:46;101001.91;;;22.71
18713;BMP280;9485;49.386;8.674;2023-10-09T10:56:06;101003.13;;;22.90
18713;BMP280;9485;49.386;8.674;2023-10-09T11:01:40;101011.78;;;23.26
18713;BMP280;9485;49.386;8.674;2023-10-09T11:07:33;100991.28;;;23.44
18713;BMP280;9485;49.386;8.674;2023-10-09T11:12:54;101001.69;;;23.69
18713;BMP280;9485;49.386;8.674;2023-10-09T11:18:41;100995.44;;;24.01
18713;BMP280;9485;49.386;8.674;2023-10-09T11:24:08;100964.63;;;24.33
18713;BMP280;9485;49.386;8.674;2023-10-09T11:29:52;100949.41;;;24.55
18713;BMP280;9485;49.386;8.674;2023-10-09T11:35:16;100928.06;;;24.58
18713;BMP280;9485;49.386;8.674;2023-10-09T11:40:41;100903.22;;;24.40
18713;BMP280;9485;49.386;8.674;2023-10-09T11:46:09;100902.66;;;24.41
18713;BMP280;9485;49.386;8.674;2023-10-09T11:51:34;100910.88;;;24.60
18713;BMP280;9485;49.386;8.674;2023-10-09T11:56:58;100923.19;;;24.75
18713;BMP280;9485;49.386;8.674;2023-10-09T12:02:20;100922.31;;;24.97
18713;BMP280;9485;49.386;8.674;2023-10-09T12:07:43;100925.72;;;25.18
18713;BMP280;9485;49.386;8.674;2023-10-09T12:13:05;100927.22;;;25.51
18713;BMP280;9485;49.386;8.674;2023-10-09T12:18:28;100911.75;;;25.56
18713;BMP280;9485;49.386;8.674;2023-10-09T12:23:49;100910.53;;;25.90
18713;BMP280;9485;49.386;8.674;2023-10-09T12:29:10;100906.91;;;26.48
18713;BMP280;9485;49.386;8.674;2023-10-09T12:34:31;100901.88;;;27.26
18713;BMP280;9485;49.386;8.674;2023-10-09T12:39:52;100884.44;;;27.88
18713;BMP280;9485;49.386;8.674;2023-10-09T12:45:15;100880.16;;;28.62
18713;BMP280;9485;49.386;8.674;2023-10-09T12:50:37;100894.16;;;29.41
18713;BMP280;9485;49.386;8.674;2023-10-09T12:56:02;100896.28;;;29.80
18713;BMP280;9485;49.386;8.674;2023-10-09T13:01:22;100890.88;;;29.96
18713;BMP280;9485;49.386;8.674;2023-10-09T13:06:44;100866.69;;;30.35
18713;BMP280;9485;49.386;8.674;2023-10-09T13:12:06;100866.94;;;30.81
18713;BMP280;9485;49.386;8.674;2023-10-09T13:17:27;100874.75;;;30.99
18713;BMP280;9485;49.386;8.674;2023-10-09T13:22:47;100863.28;;;30.80
18713;BMP280;9485;49.386;8.674;2023-10-09T13:28:09;100864.25;;;30.73
18713;BMP280;9485;49.386;8.674;2023-10-09T13:33:30;100852.28;;;30.58
18713;BMP280;9485;49.386;8.674;2023-10-09T13:38:57;100838.19;;;29.92
18713;BMP280;9485;49.386;8.674;2023-10-09T13:44:22;100835.44;;;29.54
18713;BMP280;9485;49.386;8.674;2023-10-09T13:49:43;100824.75;;;29.07
18713;BMP280;9485;49.386;8.674;2023-10-09T13:55:06;100821.13;;;28.69
18713;BMP280;9485;49.386;8.674;2023-10-09T14:00:36;100811.84;;;28.42
18713;BMP280;9485;49.386;8.674;2023-10-09T14:06:01;100804.94;;;28.28
18713;BMP280;9485;49.386;8.674;2023-10-09T14:11:30;100801.69;;;28.15
18713;BMP280;9485;49.386;8.674;2023-10-09T14:16:52;100809.16;;;27.90
18713;BMP280;9485;49.386;8.674;2023-10-09T14:22:18;100811.88;;;27.78
18713;BMP280;9485;49.386;8.674;2023-10-09T14:27:39;100811.41;;;27.72
18713;BMP280;9485;49.386;8.674;2023-10-09T14:33:01;100806.50;;;27.65
18713;BMP280;9485;49.386;8.674;2023-10-09T14:38:22;100803.78;;;27.67
18713;BMP280;9485;49.386;8.674;2023-10-09T14:43:47;100808.59;;;27.55
18713;BMP280;9485;49.386;8.674;2023-10-09T14:49:09;100805.97;;;27.50
18713;BMP280;9485;49.386;8.674;2023-10-09T14:54:33;100800.28;;;27.42
18713;BMP280;9485;49.386;8.674;2023-10-09T14:59:54;100797.53;;;27.35
18713;BMP280;9485;49.386;8.674;2023-10-09T15:05:17;100794.25;;;27.22
18713;BMP280;9485;49.386;8.674;2023-10-09T15:10:47;100782.94;;;27.07
18713;BMP280;9485;49.386;8.674;2023-10-09T15:16:08;100790.16;;;26.98
18713;BMP280;9485;49.386;8.674;2023-10-09T15:21:31;100782.78;;;26.88
18713;BMP280;9485;49.386;8.674;2023-10-09T15:26:54;100798.56;;;26.77
18713;BMP280;9485;49.386;8.674;2023-10-09T15:32:16;100794.25;;;26.69
18713;BMP280;9485;49.386;8.674;2023-10-09T15:37:43;100778.78;;;26.57
18713;BMP280;9485;49.386;8.674;2023-10-09T15:43:05;100795.00;;;26.43
18713;BMP280;9485;49.386;8.674;2023-10-09T15:48:25;100781.53;;;26.21
18713;BMP280;9485;49.386;8.674;2023-10-09T15:53:47;100783.50;;;26.02
18713;BMP280;9485;49.386;8.674;2023-10-09T15:59:15;100799.56;;;25.79
18713;BMP280;9485;49.386;8.674;2023-10-09T16:04:36;100786.47;;;25.53
18713;BMP280;9485;49.386;8.674;2023-10-09T16:09:58;100793.41;;;25.33
18713;BMP280;9485;49.386;8.674;2023-10-09T16:15:24;100788.56;;;25.11
18713;BMP280;9485;49.386;8.674;2023-10-09T16:20:47;100775.59;;;24.88
18713;BMP280;9485;49.386;8.674;2023-10-09T16:26:10;100789.59;;;24.67
18713;BMP280;9485;49.386;8.674;2023-10-09T16:31:30;100799.53;;;24.42
18713;BMP280;9485;49.386;8.674;2023-10-09T16:36:55;100804.81;;;24.14
18713;BMP280;9485;49.386;8.674;2023-10-09T16:42:16;100786.25;;;23.85
18713;BMP280;9485;49.386;8.674;2023-10-09T16:47:37;100790.66;;;23.63
18713;BMP280;9485;49.386;8.674;2023-10-09T16:52:58;100789.53;;;23.29
18713;BMP280;9485;49.386;8.674;2023-10-09T16:58:20;100792.00;;;23.10
18713;BMP280;9485;49.386;8.674;2023-10-09T17:03:42;100807.69;;;22.87
18713;BMP280;9485;49.386;8.674;2023-10-09T17:09:03;100828.00;;;22.67
18713;BMP280;9485;49.386;8.674;2023-10-09T17:14:27;100818.72;;;22.46
18713;BMP280;9485;49.386;8.674;2023-10-09T17:19:48;100816.47;;;22.24
18713;BMP280;9485;49.386;8.674;2023-10-09T17:25:09;100811.56;;;22.04
18713;BMP280;9485;49.386;8.674;2023-10-09T17:30:32;100811.69;;;21.91
18713;BMP280;9485;49.386;8.674;2023-10-09T17:35:53;100814.25;;;21.74
18713;BMP280;9485;49.386;8.674;2023-10-09T17:41:14;100809.78;;;21.66
18713;BMP280;9485;49.386;8.674;2023-10-09T17:46:36;100805.66;;;21.54
18713;BMP280;9485;49.386;8.674;2023-10-09T17:51:57;100802.94;;;21.48
18713;BMP280;9485;49.386;8.674;2023-10-09T17:57:19;100811.47;;;21.41
18713;BMP280;9485;49.386;8.674;2023-10-09T18:02:41;100804.13;;;21.32
18713;BMP280;9485;49.386;8.674;2023-10-09T18:08:03;100803.84;;;21.23
18713;BMP280;9485;49.386;8.674;2023-10-09T18:13:25;100805.13;;;21.15
18713;BMP280;9485;49.386;8.674;2023-10-09T18:18:47;100802.59;;;21.11
18713;BMP280;9485;49.386;8.674;2023-10-09T18:24:08;100801.19;;;21.05
18713;BMP280;9485;49.386;8.674;2023-10-09T18:29:33;100804.53;;;20.96
18713;BMP280;9485;49.386;8.674;2023-10-09T18:34:56;100809.88;;;20.92
18713;BMP280;9485;49.386;8.674;2023-10-09T18:40:17;100822.47;;;20.89
18713;BMP280;9485;49.386;8.674;2023-10-09T18:45:40;100830.44;;;20.83
18713;BMP280;9485;49.386;8.674;2023-10-09T18:51:03;100822.75;;;20.78
18713;BMP280;9485;49.386;8.674;2023-10-09T18:56:27;100821.28;;;20.71
18713;BMP280;9485;49.386;8.674;2023-10-09T19:01:47;100828.34;;;20.70
18713;BMP280;9485;49.386;8.674;2023-10-09T19:07:09;100827.19;;;20.66
18713;BMP280;9485;49.386;8.674;2023-10-09T19:12:30;100821.56;;;20.60
18713;BMP280;9485;49.386;8.674;2023-10-09T19:17:51;100838.31;;;20.56
18713;BMP280;9485;49.386;8.674;2023-10-09T19:23:13;100835.38;;;20.49
18713;BMP280;9485;49.386;8.674;2023-10-09T19:28:34;100837.38;;;20.41
18713;BMP280;9485;49.386;8.674;2023-10-09T19:33:57;100836.28;;;20.31
18713;BMP280;9485;49.386;8.674;2023-10-09T19:39:19;100832.22;;;20.27
18713;BMP280;9485;49.386;8.674;2023-10-09T19:44:42;100844.16;;;20.18
18713;BMP280;9485;49.386;8.674;2023-10-09T19:50:06;100845.72;;;20.06
18713;BMP280;9485;49.386;8.674;2023-10-09T19:55:28;100837.06;;;19.93
18713;BMP280;9485;49.386;8.674;2023-10-09T20:00:48;100843.44;;;19.86
18713;BMP280;9485;49.386;8.674;2023-10-09T20:06:09;100847.75;;;19.79
18713;BMP280;9485;49.386;8.674;2023-10-09T20:11:31;100855.91;;;19.75
18713;BMP280;9485;49.386;8.674;2023-10-09T20:16:53;100847.19;;;19.68
18713;BMP280;9485;49.386;8.674;2023-10-09T20:22:13;100861.19;;;19.59
18713;BMP280;9485;49.386;8.674;2023-10-09T20:27:35;100864.03;;;19.46
18713;BMP280;9485;49.386;8.674;2023-10-09T20:32:56;100872.59;;;19.33
18713;BMP280;9485;49.386;8.674;2023-10-09T20:38:17;100877.56;;;19.14
18713;BMP280;9485;49.386;8.674;2023-10-09T20:43:39;100873.88;;;19.00
18713;BMP280;9485;49.386;8.674;2023-10-09T20:49:01;100878.75;;;18.87
18713;BMP280;9485;49.386;8.674;2023-10-09T20:54:21;100879.22;;;18.73
18713;BMP280;9485;49.386;8.674;2023-10-09T20:59:43;100882.72;;;18.66
18713;BMP280;9485;49.386;8.674;2023-10-09T21:05:06;100890.91;;;18.56
18713;BMP280;9485;49.386;8.674;2023-10-09T21:10:30;100888.97;;;18.46
18713;BMP280;9485;49.386;8.674;2023-10-09T21:15:52;100898.47;;;18.35
18713;BMP280;9485;49.386;8.674;2023-10-09T21:21:14;100900.69;;;18.24
18713;BMP280;9485;49.386;8.674;2023-10-09T21:26:35;100896.94;;;18.05
18713;BMP280;9485;49.386;8.674;2023-10-09T21:31:57;100906.13;;;17.98
18713;BMP280;9485;49.386;8.674;2023-10-09T21:37:19;100905.19;;;17.90
18713;BMP280;9485;49.386;8.674;2023-10-09T21:42:40;100904.44;;;17.84
18713;BMP280;9485;49.386;8.674;2023-10-09T21:48:03;100918.31;;;17.75
18713;BMP280;9485;49.386;8.674;2023-10-09T21:53:25;100920.00;;;17.65
18713;BMP280;9485;49.386;8.674;2023-10-09T21:58:47;100931.75;;;17.56
18713;BMP280;9485;49.386;8.674;2023-10-09T22:04:09;100921.66;;;17.49
18713;BMP280;9485;49.386;8.674;2023-10-09T22:09:30;100916.78;;;17.44
18713;BMP280;9485;49.386;8.674;2023-10-09T22:14:51;100915.59;;;17.34
18713;BMP280;9485;49.386;8.674;2023-10-09T22:20:15;100919.78;;;17.28
18713;BMP280;9485;49.386;8.674;2023-10-09T22:25:39;100907.84;;;17.24
18713;BMP280;9485;49.386;8.674;2023-10-09T22:31:08;100907.91;;;17.19
18713;BMP280;9485;49.386;8.674;2023-10-09T22:36:31;100917.22;;;17.19
18713;BMP280;9485;49.386;8.674;2023-10-09T22:41:58;100913.09;;;17.15
18713;BMP280;9485;49.386;8.674;2023-10-09T22:47:20;100904.34;;;17.07
18713;BMP280;9485;49.386;8.674;2023-10-09T22:52:43;100908.59;;;16.95
18713;BMP280;9485;49.386;8.674;2023-10-09T22:58:06;100908.13;;;16.86
18713;BMP280;9485;49.386;8.674;2023-10-09T23:03:31;100907.09;;;16.83
18713;BMP280;9485;49.386;8.674;2023-10-09T23:09:01;100902.22;;;16.73
18713;BMP280;9485;49.386;8.674;2023-10-09T23:14:30;100900.72;;;16.66
18713;BMP280;9485;49.386;8.674;2023-10-09T23:19:51;100901.53;;;16.61
18713;BMP280;9485;49.386;8.674;2023-10-09T23:25:17;100909.84;;;16.54
18713;BMP280;9485;49.386;8.674;2023-10-09T23:30:49;100906.53;;;16.50
18713;BMP280;9485;49.386;8.674;2023-10-09T23:36:13;100915.09;;;16.45
18713;BMP280;9485;49.386;8.674;2023-10-09T23:41:35;100919.03;;;16.36
18713;BMP280;9485;49.386;8.674;2023-10-09T23:46:55;100917.47;;;16.30
18713;BMP280;9485;49.386;8.674;2023-10-09T23:52:20;100925.78;;;16.22
18713;BMP280;9485;49.386;8.674;2023-10-09T23:57:44;100908.72;;;16.11
